createdAt,value
2019-05-30T00:02:31.765Z,13.70
2019-05-30T00:07:37.283Z,13.80
2019-05-30T00:12:42.758Z,13.80
2019-05-30T00:17:48.217Z,13.90
2019-05-30T00:22:54.633Z,14.00
2019-05-30T00:28:01.105Z,14.10
2019-05-30T00:33:07.120Z,14.30
2019-05-30T00:38:12.745Z,14.30
2019-05-30T00:43:18.264Z,14.40
2019-05-30T00:48:23.698Z,14.50
2019-05-30T00:53:29.130Z,14.50
2019-05-30T00:58:34.558Z,14.60
2019-05-30T01:03:39.941Z,14.60
2019-05-30T01:08:45.394Z,14.60
2019-05-30T01:13:50.996Z,14.40
2019-05-30T01:18:57.025Z,14.30
2019-05-30T01:24:03.534Z,14.20
2019-05-30T01:29:09.049Z,14.00
2019-05-30T01:34:14.464Z,14.00
2019-05-30T01:39:19.928Z,14.10
2019-05-30T01:44:25.320Z,14.20
2019-05-30T01:49:30.738Z,14.30
2019-05-30T01:54:36.229Z,14.40
2019-05-30T01:59:41.727Z,14.50
2019-05-30T02:04:47.178Z,14.60
2019-05-30T02:09:52.734Z,14.60
2019-05-30T02:14:59.330Z,14.60
2019-05-30T02:20:05.810Z,14.70
2019-05-30T02:25:11.309Z,14.70
2019-05-30T02:30:17.700Z,14.70
2019-05-30T02:35:23.642Z,14.70
2019-05-30T02:40:29.140Z,14.70
2019-05-30T02:45:34.587Z,14.80
2019-05-30T02:50:40.158Z,14.80
2019-05-30T02:55:45.784Z,14.90
2019-05-30T03:00:51.364Z,14.90
2019-05-30T03:05:57.028Z,14.90
2019-05-30T03:11:04.444Z,15.00
2019-05-30T03:16:11.818Z,15.00
2019-05-30T03:21:16.970Z,15.00
2019-05-30T03:26:22.396Z,15.10
2019-05-30T03:31:29.869Z,15.20
2019-05-30T03:36:35.132Z,15.20
2019-05-30T03:41:40.685Z,15.20
2019-05-30T03:46:50.734Z,15.30
2019-05-30T03:51:56.525Z,15.30
2019-05-30T03:57:11.239Z,15.30
2019-05-30T04:02:30.364Z,15.30
2019-05-30T04:07:36.307Z,15.40
2019-05-30T04:13:03.617Z,15.50
2019-05-30T04:18:10.137Z,15.50
2019-05-30T04:23:16.939Z,15.40
2019-05-30T04:28:23.319Z,15.40
2019-05-30T04:33:33.031Z,15.40
2019-05-30T04:38:35.900Z,15.50
2019-05-30T04:43:41.483Z,15.50
2019-05-30T04:48:47.116Z,15.60
2019-05-30T04:53:52.538Z,15.60
2019-05-30T04:58:58.087Z,15.60
2019-05-30T05:04:04.070Z,15.50
2019-05-30T05:09:09.585Z,15.50
2019-05-30T05:14:16.268Z,15.60
2019-05-30T05:19:25.967Z,15.70
2019-05-30T05:24:30.710Z,15.80
2019-05-30T05:29:36.183Z,15.90
2019-05-30T05:34:41.581Z,16.00
2019-05-30T05:39:47.125Z,16.20
2019-05-30T05:44:52.874Z,16.30
2019-05-30T05:49:58.433Z,16.40
2019-05-30T05:55:03.907Z,16.50
2019-05-30T06:00:09.417Z,16.60
2019-05-30T06:05:15.958Z,16.70
2019-05-30T06:10:21.873Z,16.80
2019-05-30T06:15:27.347Z,17.00
2019-05-30T06:20:32.767Z,17.20
2019-05-30T06:25:38.448Z,17.30
2019-05-30T06:30:44.047Z,17.40
2019-05-30T06:35:49.499Z,17.50
2019-05-30T06:40:55.065Z,17.50
2019-05-30T06:46:00.598Z,17.50
2019-05-30T06:51:06.075Z,17.60
2019-05-30T06:56:11.701Z,17.70
2019-05-30T07:01:17.166Z,17.80
2019-05-30T07:06:23.209Z,18.10
2019-05-30T07:11:29.409Z,18.40
2019-05-30T07:16:34.888Z,18.50
2019-05-30T07:21:40.536Z,18.60
2019-05-30T07:26:45.997Z,18.70
2019-05-30T07:31:51.424Z,18.80
2019-05-30T07:36:56.982Z,18.80
2019-05-30T07:42:06.159Z,18.80
2019-05-30T07:47:09.582Z,18.90
2019-05-30T07:52:15.053Z,18.90
2019-05-30T07:57:20.460Z,19.10
2019-05-30T08:02:27.411Z,19.40
2019-05-30T08:07:33.036Z,19.50
2019-05-30T08:12:38.664Z,19.50
2019-05-30T08:17:44.629Z,19.40
2019-05-30T08:22:50.249Z,19.40
2019-05-30T08:27:55.741Z,19.50
2019-05-30T08:33:01.186Z,19.60
2019-05-30T08:38:06.713Z,19.80
2019-05-30T08:43:12.387Z,20.10
2019-05-30T08:48:17.849Z,20.60
2019-05-30T08:53:23.280Z,21.10
2019-05-30T08:58:28.714Z,21.60
2019-05-30T09:03:34.237Z,21.90
2019-05-30T09:08:40.038Z,22.20
2019-05-30T09:13:46.606Z,22.50
2019-05-30T09:18:52.368Z,22.90
2019-05-30T09:24:01.256Z,23.00
2019-05-30T09:29:04.946Z,23.00
2019-05-30T09:34:12.123Z,22.90
2019-05-30T09:39:17.827Z,22.90
2019-05-30T09:44:33.145Z,22.80
2019-05-30T09:49:38.644Z,22.90
2019-05-30T09:54:44.334Z,23.00
2019-05-30T09:59:50.500Z,23.20
2019-05-30T10:04:56.224Z,23.30
2019-05-30T10:10:01.661Z,23.20
2019-05-30T10:15:08.277Z,23.00
2019-05-30T10:20:13.744Z,22.80
2019-05-30T10:25:19.210Z,22.80
2019-05-30T10:30:24.985Z,22.70
2019-05-30T10:35:31.243Z,22.70
2019-05-30T10:40:36.756Z,22.70
2019-05-30T10:45:42.266Z,22.60
2019-05-30T10:50:48.570Z,22.70
2019-05-30T10:55:54.826Z,23.20
2019-05-30T11:01:00.409Z,24.10
2019-05-30T11:06:39.172Z,25.20
2019-05-30T11:11:44.832Z,25.60
2019-05-30T11:16:51.700Z,25.70
2019-05-30T11:21:58.176Z,25.30
2019-05-30T11:27:03.667Z,25.00
2019-05-30T11:32:09.246Z,25.00
2019-05-30T11:37:18.809Z,25.00
2019-05-30T11:42:22.044Z,24.90
2019-05-30T11:47:27.532Z,25.00
2019-05-30T11:52:33.054Z,25.00
2019-05-30T11:57:38.516Z,24.70
2019-05-30T12:02:43.947Z,24.20
2019-05-30T12:07:50.614Z,23.70
2019-05-30T12:12:57.330Z,23.40
2019-05-30T12:18:02.882Z,23.10
2019-05-30T12:23:08.406Z,22.80
2019-05-30T12:28:13.836Z,22.60
2019-05-30T12:33:19.269Z,22.50
2019-05-30T12:38:24.724Z,22.40
2019-05-30T12:43:30.181Z,22.20
2019-05-30T12:48:35.764Z,22.10
2019-05-30T12:53:41.191Z,22.20
2019-05-30T12:58:46.733Z,22.20
2019-05-30T13:03:52.303Z,22.20
2019-05-30T13:08:57.749Z,22.10
2019-05-30T13:14:03.243Z,22.10
2019-05-30T13:19:08.697Z,22.20
2019-05-30T13:24:14.389Z,22.30
2019-05-30T13:29:19.869Z,22.30
2019-05-30T13:34:25.289Z,22.20
2019-05-30T13:39:30.952Z,22.30
2019-05-30T13:44:36.542Z,22.40
2019-05-30T13:49:42.044Z,22.30
2019-05-30T13:54:47.664Z,22.20
2019-05-30T13:59:53.121Z,22.30
2019-05-30T14:04:59.915Z,22.40
2019-05-30T14:10:06.420Z,22.80
2019-05-30T14:15:14.281Z,22.80
2019-05-30T14:20:19.970Z,22.80
2019-05-30T14:25:25.395Z,22.60
2019-05-30T14:30:30.894Z,22.40
2019-05-30T14:35:36.450Z,22.10
2019-05-30T14:40:42.051Z,21.90
2019-05-30T14:45:47.485Z,21.80
2019-05-30T14:50:53.009Z,21.90
2019-05-30T14:55:58.549Z,22.10
2019-05-30T15:01:05.045Z,22.60
2019-05-30T15:06:12.882Z,23.00
2019-05-30T15:11:17.846Z,23.30
2019-05-30T15:16:23.307Z,23.70
2019-05-30T15:21:28.721Z,23.80
2019-05-30T15:26:34.170Z,23.90
2019-05-30T15:31:39.673Z,24.00
2019-05-30T15:36:45.168Z,24.10
2019-05-30T15:41:50.608Z,24.30
2019-05-30T15:46:56.115Z,24.40
2019-05-30T15:52:01.527Z,24.50
2019-05-30T15:57:06.931Z,24.60
2019-05-30T16:02:12.427Z,24.50
2019-05-30T16:07:18.819Z,24.40
2019-05-30T16:12:24.248Z,24.20
2019-05-30T16:17:29.687Z,24.10
2019-05-30T16:22:35.161Z,23.90
2019-05-30T16:27:40.588Z,23.60
2019-05-30T16:32:46.068Z,23.30
2019-05-30T16:37:51.561Z,23.10
2019-05-30T16:42:57.540Z,22.90
2019-05-30T16:48:02.978Z,22.90
2019-05-30T16:53:08.642Z,22.90
2019-05-30T16:58:15.367Z,22.90
2019-05-30T17:03:21.926Z,22.80
2019-05-30T17:08:27.542Z,22.80
2019-05-30T17:13:33.012Z,22.70
2019-05-30T17:18:38.518Z,22.70
2019-05-30T17:23:44.010Z,22.70
2019-05-30T17:28:49.428Z,22.70
2019-05-30T17:33:54.945Z,22.80
2019-05-30T17:39:00.546Z,22.80
2019-05-30T17:44:06.065Z,22.80
2019-05-30T17:49:11.489Z,22.80
2019-05-30T17:54:17.292Z,22.90
2019-05-30T17:59:24.254Z,22.80
2019-05-30T18:04:30.774Z,22.80
2019-05-30T18:09:36.416Z,22.80
2019-05-30T18:14:42.286Z,22.60
2019-05-30T18:19:47.861Z,22.50
2019-05-30T18:24:53.511Z,22.30
2019-05-30T18:29:59.082Z,22.10
2019-05-30T18:35:04.817Z,22.00
2019-05-30T18:40:11.340Z,21.90
2019-05-30T18:45:24.955Z,21.80
2019-05-30T18:50:31.659Z,21.60
2019-05-30T18:55:37.233Z,21.40
2019-05-30T19:00:42.715Z,21.20
2019-05-30T19:05:48.641Z,20.90
2019-05-30T19:10:54.312Z,20.60
2019-05-30T19:15:59.761Z,20.40
2019-05-30T19:21:05.314Z,20.10
2019-05-30T19:26:11.274Z,19.90
2019-05-30T19:31:17.003Z,19.70
2019-05-30T19:36:22.488Z,19.50
2019-05-30T19:41:41.606Z,19.40
2019-05-30T19:46:36.239Z,19.30
2019-05-30T19:51:42.342Z,19.30
2019-05-30T19:56:47.785Z,19.30
2019-05-30T20:01:53.488Z,19.20
2019-05-30T20:06:59.201Z,19.10
2019-05-30T20:12:08.634Z,18.80
2019-05-30T20:17:12.124Z,18.60
2019-05-30T20:22:17.567Z,18.40
2019-05-30T20:27:23.239Z,18.20
2019-05-30T20:32:28.926Z,18.00
2019-05-30T20:37:34.619Z,17.80
2019-05-30T20:42:41.051Z,17.60
2019-05-30T20:47:47.506Z,17.50
2019-05-30T20:52:53.016Z,17.40
2019-05-30T20:57:58.435Z,17.30
2019-05-30T21:03:04.157Z,17.20
2019-05-30T21:08:09.650Z,17.00
2019-05-30T21:13:15.148Z,17.00
2019-05-30T21:18:20.658Z,16.90
2019-05-30T21:23:26.153Z,16.80
2019-05-30T21:28:31.669Z,16.80
2019-05-30T21:33:37.689Z,16.70
2019-05-30T21:38:43.954Z,16.70
2019-05-30T21:43:49.409Z,16.70
2019-05-30T21:48:54.933Z,16.60
2019-05-30T21:54:00.326Z,16.50
2019-05-30T21:59:05.782Z,16.40
2019-05-30T22:04:11.231Z,16.30
2019-05-30T22:09:16.735Z,16.20
2019-05-30T22:14:22.374Z,16.10
2019-05-30T22:19:27.829Z,16.00
2019-05-30T22:24:33.338Z,16.00
2019-05-30T22:29:40.458Z,15.90
2019-05-30T22:34:46.654Z,15.80
2019-05-30T22:39:53.041Z,15.70
2019-05-30T22:44:58.830Z,15.60
2019-05-30T22:50:04.318Z,15.60
2019-05-30T22:55:09.806Z,15.60
2019-05-30T23:00:15.956Z,15.60
2019-05-30T23:05:21.368Z,15.60
2019-05-30T23:10:26.882Z,15.50
2019-05-30T23:15:32.370Z,15.50
2019-05-30T23:20:37.890Z,15.40
2019-05-30T23:25:43.513Z,15.40
2019-05-30T23:30:49.849Z,15.30
2019-05-30T23:35:56.521Z,15.20
2019-05-30T23:41:02.164Z,15.20
2019-05-30T23:46:07.581Z,15.00
2019-05-30T23:51:13.136Z,15.10
2019-05-30T23:56:18.897Z,15.10
